createdAt,value
2022-09-25T00:00:59.540Z,82.83
2022-09-25T00:03:25.050Z,83.08
2022-09-25T00:05:49.923Z,84.96
2022-09-25T00:08:14.724Z,84.37
2022-09-25T00:10:42.944Z,83.91
2022-09-25T00:13:07.875Z,84.64
2022-09-25T00:15:31.439Z,83.67
2022-09-25T00:17:54.979Z,85.04
2022-09-25T00:20:20.719Z,84.91
2022-09-25T00:22:44.514Z,82.64
2022-09-25T00:25:09.100Z,84.70
2022-09-25T00:27:32.946Z,83.05
2022-09-25T00:29:59.736Z,82.64
2022-09-25T00:32:23.274Z,82.69
2022-09-25T00:34:47.091Z,82.44
2022-09-25T00:37:10.635Z,83.19
2022-09-25T00:39:35.335Z,83.03
2022-09-25T00:41:58.974Z,84.78
2022-09-25T00:44:58.079Z,84.78
2022-09-25T00:47:27.731Z,83.22
2022-09-25T00:49:52.374Z,83.25
2022-09-25T00:52:16.492Z,84.13
2022-09-25T00:54:45.252Z,85.58
2022-09-25T00:57:14.962Z,82.97
2022-09-25T00:59:41.723Z,83.02
2022-09-25T01:02:08.980Z,84.04
2022-09-25T01:04:38.132Z,82.86
2022-09-25T01:07:01.858Z,82.85
2022-09-25T01:09:25.995Z,82.62
2022-09-25T01:11:49.521Z,83.83
2022-09-25T01:14:16.980Z,84.69
2022-09-25T01:16:49.836Z,85.24
2022-09-25T01:19:35.567Z,83.24
2022-09-25T01:22:07.367Z,85.40
2022-09-25T01:24:46.174Z,84.69
2022-09-25T01:27:43.491Z,83.43
2022-09-25T01:30:13.495Z,86.35
2022-09-25T01:32:49.588Z,84.76
2022-09-25T01:35:20.843Z,83.02
2022-09-25T01:37:49.382Z,84.29
2022-09-25T01:40:21.080Z,84.70
2022-09-25T01:42:52.808Z,83.80
2022-09-25T01:45:24.025Z,83.41
2022-09-25T01:47:50.234Z,85.98
2022-09-25T01:50:19.681Z,84.68
2022-09-25T01:52:49.406Z,86.02
2022-09-25T01:55:18.228Z,86.71
2022-09-25T01:57:49.277Z,86.36
2022-09-25T02:00:19.758Z,85.55
2022-09-25T02:02:48.387Z,84.49
2022-09-25T02:05:16.203Z,84.79
2022-09-25T02:07:46.147Z,84.06
2022-09-25T02:10:15.030Z,84.43
2022-09-25T02:12:43.442Z,84.86
2022-09-25T02:15:13.451Z,84.61
2022-09-25T02:18:04.367Z,83.92
2022-09-25T02:20:34.700Z,85.51
2022-09-25T02:23:03.156Z,87.30
2022-09-25T02:25:37.863Z,85.68
2022-09-25T02:28:01.459Z,86.03
2022-09-25T02:30:25.080Z,85.73
2022-09-25T02:32:50.098Z,84.83
2022-09-25T02:35:13.599Z,85.94
2022-09-25T02:37:37.192Z,85.87
2022-09-25T02:40:04.182Z,85.19
2022-09-25T02:42:40.689Z,86.13
2022-09-25T02:45:13.902Z,87.03
2022-09-25T02:47:48.655Z,85.54
2022-09-25T02:50:22.856Z,84.31
2022-09-25T02:52:54.643Z,87.04
2022-09-25T02:55:28.721Z,85.75
2022-09-25T02:57:57.790Z,86.67
2022-09-25T03:00:22.878Z,85.10
2022-09-25T03:02:52.335Z,87.31
2022-09-25T03:05:18.303Z,84.79
2022-09-25T03:08:00.472Z,85.37
2022-09-25T03:10:24.886Z,85.83
2022-09-25T03:12:48.418Z,85.41
2022-09-25T03:15:13.632Z,86.25
2022-09-25T03:17:37.502Z,85.95
2022-09-25T03:20:01.142Z,87.36
2022-09-25T03:22:26.028Z,85.65
2022-09-25T03:24:50.759Z,84.24
2022-09-25T03:27:14.279Z,87.30
2022-09-25T03:29:37.861Z,86.23
2022-09-25T03:32:01.491Z,87.73
2022-09-25T03:34:25.097Z,85.48
2022-09-25T03:36:48.752Z,86.56
2022-09-25T03:39:15.134Z,84.25
2022-09-25T03:41:38.970Z,88.11
2022-09-25T03:44:03.328Z,85.36
2022-09-25T03:46:29.862Z,87.09
2022-09-25T03:48:53.759Z,86.54
2022-09-25T03:51:17.348Z,86.04
2022-09-25T03:53:41.204Z,86.05
2022-09-25T03:56:09.230Z,85.98
2022-09-25T03:58:33.051Z,85.26
2022-09-25T04:00:57.727Z,88.01
2022-09-25T04:03:22.568Z,86.79
2022-09-25T04:05:46.409Z,85.75
2022-09-25T04:08:10.116Z,86.36
2022-09-25T04:10:34.350Z,85.76
2022-09-25T04:12:59.327Z,86.02
2022-09-25T04:15:24.107Z,85.80
2022-09-25T04:17:47.736Z,86.46
2022-09-25T04:20:11.607Z,85.63
2022-09-25T04:22:35.190Z,86.48
2022-09-25T04:24:58.707Z,87.06
2022-09-25T04:27:24.325Z,86.86
2022-09-25T04:29:50.291Z,85.78
2022-09-25T04:32:42.799Z,84.77
2022-09-25T04:35:07.199Z,85.80
2022-09-25T04:37:30.719Z,85.18
2022-09-25T04:39:54.927Z,84.69
2022-09-25T04:42:18.510Z,85.46
2022-09-25T04:44:42.069Z,87.30
2022-09-25T04:47:07.018Z,85.33
2022-09-25T04:49:30.584Z,85.51
2022-09-25T04:51:54.123Z,85.45
2022-09-25T04:54:17.931Z,84.86
2022-09-25T04:56:41.448Z,84.52
2022-09-25T04:59:05.042Z,85.67
2022-09-25T05:01:28.619Z,85.92
2022-09-25T05:03:54.509Z,86.67
2022-09-25T05:06:18.354Z,85.64
2022-09-25T05:08:41.923Z,84.49
2022-09-25T05:11:05.457Z,85.54
2022-09-25T05:13:29.239Z,84.24
2022-09-25T05:15:52.963Z,85.44
2022-09-25T05:18:20.756Z,84.77
2022-09-25T05:20:46.421Z,83.69
2022-09-25T05:23:10.396Z,83.37
2022-09-25T05:25:34.295Z,83.85
2022-09-25T05:28:00.568Z,83.56
2022-09-25T05:30:24.237Z,83.24
2022-09-25T05:32:50.618Z,83.46
2022-09-25T05:35:14.276Z,83.61
2022-09-25T05:37:39.264Z,85.29
2022-09-25T05:40:03.675Z,83.92
2022-09-25T05:42:29.037Z,85.03
2022-09-25T05:44:52.536Z,83.77
2022-09-25T05:47:16.099Z,84.29
2022-09-25T05:49:39.599Z,85.04
2022-09-25T05:52:03.835Z,85.35
2022-09-25T05:54:28.754Z,84.12
2022-09-25T05:56:52.299Z,84.80
2022-09-25T05:59:15.787Z,86.68
2022-09-25T06:01:39.479Z,87.64
2022-09-25T06:04:04.539Z,86.28
2022-09-25T06:06:28.072Z,88.13
2022-09-25T06:08:51.565Z,89.08
2022-09-25T06:11:16.525Z,88.44
2022-09-25T06:13:41.012Z,89.41
2022-09-25T06:16:06.047Z,90.04
2022-09-25T06:18:29.576Z,90.37
2022-09-25T06:20:59.490Z,89.75
2022-09-25T06:23:23.001Z,90.80
2022-09-25T06:25:46.840Z,89.75
2022-09-25T06:28:13.150Z,86.55
2022-09-25T06:30:38.583Z,87.04
2022-09-25T06:33:03.484Z,86.38
2022-09-25T06:35:27.232Z,87.27
2022-09-25T06:37:50.772Z,89.24
2022-09-25T06:40:14.342Z,86.99
2022-09-25T06:42:39.050Z,89.13
2022-09-25T06:45:04.099Z,89.12
2022-09-25T06:47:27.648Z,89.52
2022-09-25T06:49:51.234Z,89.00
2022-09-25T06:52:14.854Z,87.21
2022-09-25T06:54:41.845Z,84.80
2022-09-25T06:57:09.296Z,87.72
2022-09-25T06:59:32.831Z,85.71
2022-09-25T07:02:18.381Z,85.99
2022-09-25T07:04:41.126Z,85.85
2022-09-25T07:07:04.735Z,83.78
2022-09-25T07:09:28.410Z,84.19
2022-09-25T07:11:53.271Z,85.77
2022-09-25T07:14:16.839Z,83.96
2022-09-25T07:16:40.470Z,82.22
2022-09-25T07:19:05.662Z,80.89
2022-09-25T07:21:32.264Z,75.76
2022-09-25T07:23:57.110Z,81.51
2022-09-25T07:26:23.142Z,80.07
2022-09-25T07:28:46.688Z,77.57
2022-09-25T07:31:16.318Z,74.24
2022-09-25T07:33:40.027Z,74.89
2022-09-25T07:36:05.422Z,74.17
2022-09-25T07:38:29.043Z,72.41
2022-09-25T07:40:55.036Z,74.63
2022-09-25T07:43:18.628Z,73.03
2022-09-25T07:45:44.104Z,73.74
2022-09-25T07:48:07.755Z,73.04
2022-09-25T07:50:32.963Z,70.30
2022-09-25T07:52:57.943Z,72.37
2022-09-25T07:55:21.819Z,72.25
2022-09-25T07:57:45.361Z,72.17
2022-09-25T08:00:10.624Z,75.10
2022-09-25T08:02:36.015Z,70.50
2022-09-25T08:04:59.555Z,74.83
2022-09-25T08:07:23.128Z,71.84
2022-09-25T08:09:48.063Z,70.50
2022-09-25T08:12:14.052Z,70.95
2022-09-25T08:14:37.568Z,72.73
2022-09-25T08:17:01.167Z,67.96
2022-09-25T08:19:24.688Z,73.50
2022-09-25T08:21:48.396Z,69.77
2022-09-25T08:24:12.310Z,67.83
2022-09-25T08:26:37.481Z,70.25
2022-09-25T08:29:01.469Z,69.35
2022-09-25T08:31:25.246Z,71.86
2022-09-25T08:33:50.759Z,68.74
2022-09-25T08:36:14.463Z,67.88
2022-09-25T08:38:38.059Z,68.41
2022-09-25T08:41:08.799Z,65.86
2022-09-25T08:43:37.411Z,68.35
2022-09-25T08:46:21.337Z,67.30
2022-09-25T08:49:06.159Z,66.85
2022-09-25T08:51:30.840Z,66.67
2022-09-25T08:53:54.393Z,65.86
2022-09-25T08:56:21.221Z,65.74
2022-09-25T08:58:52.222Z,66.42
2022-09-25T09:01:20.129Z,63.38
2022-09-25T09:03:53.428Z,64.63
2022-09-25T09:06:19.026Z,64.14
2022-09-25T09:08:47.667Z,66.60
2022-09-25T09:11:18.035Z,65.80
2022-09-25T09:13:51.495Z,61.70
2022-09-25T09:16:29.843Z,62.64
2022-09-25T09:18:53.719Z,61.34
2022-09-25T09:21:25.600Z,61.88
2022-09-25T09:23:58.885Z,61.58
2022-09-25T09:26:35.331Z,61.76
2022-09-25T09:29:29.288Z,62.31
2022-09-25T09:32:20.739Z,58.31
2022-09-25T09:35:08.888Z,57.49
2022-09-25T09:37:49.982Z,56.47
2022-09-25T09:40:27.514Z,59.15
2022-09-25T09:43:04.755Z,56.21
2022-09-25T09:45:44.431Z,56.63
2022-09-25T09:48:16.731Z,57.80
2022-09-25T09:50:52.353Z,55.37
2022-09-25T09:53:30.067Z,56.50
2022-09-25T09:55:59.159Z,52.47
2022-09-25T09:58:30.473Z,54.28
2022-09-25T10:00:55.659Z,54.37
2022-09-25T10:03:25.282Z,52.51
2022-09-25T10:05:51.175Z,54.03
2022-09-25T10:08:14.930Z,53.34
2022-09-25T10:10:42.185Z,54.01
2022-09-25T10:13:12.735Z,55.46
2022-09-25T10:15:42.826Z,51.87
2022-09-25T10:18:09.215Z,52.13
2022-09-25T10:20:41.985Z,52.81
2022-09-25T10:23:09.882Z,52.93
2022-09-25T10:25:39.219Z,55.18
2022-09-25T10:28:22.680Z,53.78
2022-09-25T10:30:47.933Z,52.81
2022-09-25T10:33:17.923Z,52.98
2022-09-25T10:35:45.953Z,52.52
2022-09-25T10:38:33.720Z,56.35
2022-09-25T10:41:04.855Z,51.75
2022-09-25T10:43:28.500Z,49.59
2022-09-25T10:45:54.240Z,51.88
2022-09-25T10:48:52.227Z,51.04
2022-09-25T10:51:18.452Z,52.18
2022-09-25T10:53:42.044Z,51.11
2022-09-25T10:56:08.613Z,50.78
2022-09-25T10:58:38.579Z,54.59
2022-09-25T11:01:04.701Z,49.17
2022-09-25T11:03:32.492Z,52.53
2022-09-25T11:05:58.965Z,51.21
2022-09-25T11:08:26.762Z,52.49
2022-09-25T11:10:57.204Z,51.79
2022-09-25T11:13:26.168Z,54.64
2022-09-25T11:15:54.824Z,53.35
2022-09-25T11:18:39.162Z,55.88
2022-09-25T11:21:04.608Z,53.90
2022-09-25T11:23:36.182Z,50.96
2022-09-25T11:26:10.025Z,54.68
2022-09-25T11:28:38.725Z,55.78
2022-09-25T11:31:13.313Z,54.96
2022-09-25T11:33:46.328Z,50.39
2022-09-25T11:36:17.651Z,53.63
2022-09-25T11:39:06.240Z,55.04
2022-09-25T11:41:35.939Z,51.92
2022-09-25T11:44:12.343Z,53.55
2022-09-25T11:46:50.451Z,53.02
2022-09-25T11:49:24.550Z,50.86
2022-09-25T11:52:40.183Z,51.30
2022-09-25T11:55:34.823Z,48.97
2022-09-25T11:58:11.103Z,49.82
2022-09-25T12:00:47.403Z,54.57
2022-09-25T12:03:32.494Z,50.07
2022-09-25T12:06:27.083Z,50.67
2022-09-25T12:09:07.366Z,51.62
2022-09-25T12:11:41.392Z,52.71
2022-09-25T12:14:14.199Z,49.86
2022-09-25T12:16:44.233Z,50.54
2022-09-25T12:19:40.195Z,50.58
2022-09-25T12:22:13.797Z,51.86
2022-09-25T12:24:55.760Z,50.68
2022-09-25T12:27:29.312Z,48.73
2022-09-25T12:30:11.682Z,51.69
2022-09-25T12:33:04.097Z,50.88
2022-09-25T12:35:40.909Z,47.75
2022-09-25T12:38:13.218Z,50.13
2022-09-25T12:40:44.148Z,50.37
2022-09-25T12:43:15.307Z,52.13
2022-09-25T12:45:44.531Z,49.41
2022-09-25T12:48:17.003Z,49.42
2022-09-25T12:50:50.488Z,51.76
2022-09-25T12:55:56.555Z,46.98
2022-09-25T12:58:32.145Z,46.21
2022-09-25T13:01:03.650Z,47.03
2022-09-25T13:03:37.421Z,50.12
2022-09-25T13:06:11.643Z,46.71
2022-09-25T13:08:45.900Z,47.55
2022-09-25T13:11:17.898Z,50.86
2022-09-25T13:13:45.863Z,50.06
2022-09-25T13:16:09.478Z,51.30
2022-09-25T13:18:34.498Z,46.85
2022-09-25T13:21:01.585Z,48.25
2022-09-25T13:23:33.792Z,49.26
2022-09-25T13:26:03.240Z,49.54
2022-09-25T13:28:31.468Z,48.71
2022-09-25T13:31:12.346Z,51.26
2022-09-25T13:33:44.806Z,52.83
2022-09-25T13:36:23.315Z,48.50
2022-09-25T13:39:05.180Z,49.25
2022-09-25T13:41:30.946Z,49.10
2022-09-25T13:44:50.205Z,52.65
2022-09-25T13:47:57.071Z,50.72
2022-09-25T13:50:32.342Z,51.92
2022-09-25T13:53:27.187Z,50.11
2022-09-25T13:56:45.946Z,52.33
2022-09-25T13:59:27.258Z,52.38
2022-09-25T14:01:55.750Z,53.89
2022-09-25T14:04:32.363Z,54.47
2022-09-25T14:07:06.415Z,55.43
2022-09-25T14:09:31.761Z,53.09
2022-09-25T14:12:13.400Z,54.62
2022-09-25T14:14:52.553Z,55.22
2022-09-25T14:17:17.723Z,53.72
2022-09-25T14:19:45.436Z,53.95
2022-09-25T14:22:20.674Z,54.41
2022-09-25T14:24:45.566Z,53.12
2022-09-25T14:27:24.026Z,54.19
2022-09-25T14:29:47.954Z,52.18
2022-09-25T14:32:53.460Z,52.01
2022-09-25T14:35:32.271Z,50.82
2022-09-25T14:38:35.887Z,54.56
2022-09-25T14:41:23.547Z,54.03
2022-09-25T14:44:04.291Z,53.50
2022-09-25T14:46:28.319Z,53.75
2022-09-25T14:48:55.810Z,52.63
2022-09-25T14:51:26.155Z,54.48
2022-09-25T14:53:55.915Z,53.50
2022-09-25T14:56:20.399Z,54.18
2022-09-25T14:58:47.532Z,55.30
2022-09-25T15:01:19.886Z,57.05
2022-09-25T15:03:48.852Z,55.83
2022-09-25T15:06:16.154Z,57.83
2022-09-25T15:08:42.407Z,58.30
2022-09-25T15:11:13.720Z,57.65
2022-09-25T15:13:37.279Z,57.48
2022-09-25T15:16:18.934Z,57.60
2022-09-25T15:18:47.464Z,57.48
2022-09-25T15:21:17.618Z,59.19
2022-09-25T15:23:41.359Z,59.90
2022-09-25T15:26:05.347Z,58.27
2022-09-25T15:28:29.837Z,57.86
2022-09-25T15:30:58.478Z,57.93
2022-09-25T15:33:25.640Z,58.93
2022-09-25T15:35:57.747Z,59.81
2022-09-25T15:38:21.391Z,60.06
2022-09-25T15:40:55.689Z,59.52
2022-09-25T15:43:19.960Z,59.30
2022-09-25T15:45:47.264Z,59.44
2022-09-25T15:48:22.623Z,59.21
2022-09-25T15:50:46.602Z,59.95
2022-09-25T15:53:23.803Z,59.86
2022-09-25T15:55:47.575Z,60.52
2022-09-25T15:58:16.622Z,58.79
2022-09-25T16:00:57.927Z,60.12
2022-09-25T16:03:42.605Z,60.75
2022-09-25T16:06:06.983Z,60.43
2022-09-25T16:08:34.630Z,61.16
2022-09-25T16:11:17.393Z,60.82
2022-09-25T16:13:43.695Z,62.78
2022-09-25T16:16:20.752Z,62.37
2022-09-25T16:18:44.465Z,62.83
2022-09-25T16:21:22.841Z,63.50
2022-09-25T16:23:56.126Z,63.72
2022-09-25T16:26:25.581Z,64.25
2022-09-25T16:29:03.606Z,64.37
2022-09-25T16:31:27.530Z,64.83
2022-09-25T16:33:54.887Z,64.76
2022-09-25T16:36:19.064Z,65.28
2022-09-25T16:39:05.657Z,65.80
2022-09-25T16:41:29.426Z,66.23
2022-09-25T16:44:14.742Z,66.20
2022-09-25T16:46:38.364Z,66.68
2022-09-25T16:49:04.961Z,67.03
2022-09-25T16:51:30.376Z,67.58
2022-09-25T16:53:55.196Z,67.79
2022-09-25T16:56:25.765Z,67.45
2022-09-25T16:58:49.485Z,67.27
2022-09-25T17:01:13.366Z,67.85
2022-09-25T17:03:49.895Z,67.86
2022-09-25T17:06:13.625Z,68.13
2022-09-25T17:08:37.135Z,68.88
2022-09-25T17:11:00.727Z,68.71
2022-09-25T17:13:30.833Z,68.49
2022-09-25T17:15:55.818Z,69.28
2022-09-25T17:18:22.416Z,69.48
2022-09-25T17:20:46.763Z,69.54
2022-09-25T17:23:11.953Z,70.09
2022-09-25T17:25:42.196Z,70.38
2022-09-25T17:28:07.252Z,70.39
2022-09-25T17:30:32.196Z,70.62
2022-09-25T17:32:55.707Z,70.73
2022-09-25T17:35:37.619Z,70.63
2022-09-25T17:38:01.971Z,71.66
2022-09-25T17:40:25.716Z,71.56
2022-09-25T17:42:49.311Z,71.76
2022-09-25T17:45:27.619Z,71.60
2022-09-25T17:47:54.591Z,72.09
2022-09-25T17:50:18.344Z,72.57
2022-09-25T17:52:41.960Z,72.15
2022-09-25T17:55:16.051Z,72.63
2022-09-25T17:57:39.771Z,72.71
2022-09-25T18:00:04.081Z,73.48
2022-09-25T18:02:29.745Z,73.24
2022-09-25T18:04:54.680Z,72.69
2022-09-25T18:07:18.723Z,72.78
2022-09-25T18:09:42.320Z,73.41
2022-09-25T18:12:05.949Z,73.98
2022-09-25T18:14:29.912Z,74.98
2022-09-25T18:16:53.477Z,73.50
2022-09-25T18:19:37.636Z,73.43
2022-09-25T18:22:22.000Z,74.00
2022-09-25T18:24:45.944Z,73.71
2022-09-25T18:27:09.525Z,73.61
2022-09-25T18:29:36.498Z,72.78
2022-09-25T18:32:00.014Z,72.59
2022-09-25T18:34:26.084Z,73.02
2022-09-25T18:36:50.265Z,73.52
2022-09-25T18:39:19.889Z,73.38
2022-09-25T18:41:44.064Z,74.52
2022-09-25T18:44:08.222Z,75.00
2022-09-25T18:46:31.793Z,73.39
2022-09-25T18:48:57.697Z,73.68
2022-09-25T18:51:21.287Z,74.33
2022-09-25T18:53:45.072Z,75.14
2022-09-25T18:56:10.564Z,74.15
2022-09-25T18:58:34.624Z,74.16
2022-09-25T19:00:58.175Z,74.83
2022-09-25T19:03:22.579Z,75.08
2022-09-25T19:05:56.248Z,75.38
2022-09-25T19:08:19.883Z,74.87
2022-09-25T19:10:44.347Z,74.02
2022-09-25T19:13:10.278Z,74.90
2022-09-25T19:15:33.859Z,75.28
2022-09-25T19:17:58.330Z,75.30
2022-09-25T19:20:21.889Z,75.16
2022-09-25T19:22:45.572Z,75.40
2022-09-25T19:25:11.252Z,76.09
2022-09-25T19:27:34.816Z,77.62
2022-09-25T19:29:59.724Z,76.40
2022-09-25T19:32:24.805Z,77.30
2022-09-25T19:34:48.323Z,76.57
2022-09-25T19:37:11.951Z,76.25
2022-09-25T19:39:56.227Z,76.65
2022-09-25T19:42:19.983Z,76.23
2022-09-25T19:44:43.867Z,77.28
2022-09-25T19:47:08.839Z,77.63
2022-09-25T19:49:32.327Z,77.22
2022-09-25T19:51:55.907Z,78.75
2022-09-25T19:54:19.582Z,78.37
2022-09-25T19:56:43.623Z,76.78
2022-09-25T19:59:07.147Z,78.18
2022-09-25T20:01:31.041Z,79.55
2022-09-25T20:03:56.717Z,77.22
2022-09-25T20:06:20.549Z,77.99
2022-09-25T20:08:44.439Z,77.83
2022-09-25T20:11:18.575Z,78.67
2022-09-25T20:13:42.195Z,78.84
2022-09-25T20:16:09.986Z,80.33
2022-09-25T20:18:33.617Z,81.35
2022-09-25T20:21:03.711Z,78.80
2022-09-25T20:23:27.275Z,79.14
2022-09-25T20:25:50.772Z,78.23
2022-09-25T20:28:14.952Z,82.00
2022-09-25T20:30:38.846Z,82.48
2022-09-25T20:33:03.875Z,83.21
2022-09-25T20:35:27.471Z,82.35
2022-09-25T20:37:52.438Z,81.17
2022-09-25T20:40:16.836Z,82.87
2022-09-25T20:42:40.939Z,82.48
2022-09-25T20:45:04.860Z,82.13
2022-09-25T20:47:33.718Z,81.65
2022-09-25T20:49:57.419Z,80.89
2022-09-25T20:52:21.031Z,80.37
2022-09-25T20:54:45.931Z,84.06
2022-09-25T20:57:09.963Z,83.93
2022-09-25T20:59:33.504Z,82.29
2022-09-25T21:01:57.989Z,84.42
2022-09-25T21:04:21.651Z,83.19
2022-09-25T21:06:46.153Z,84.22
2022-09-25T21:09:13.951Z,83.33
2022-09-25T21:11:40.342Z,87.24
2022-09-25T21:14:04.949Z,85.37
2022-09-25T21:16:30.732Z,85.16
2022-09-25T21:18:57.499Z,86.87
2022-09-25T21:21:21.284Z,84.75
2022-09-25T21:23:49.204Z,85.20
2022-09-25T21:26:15.030Z,84.25
2022-09-25T21:28:42.171Z,84.31
2022-09-25T21:31:07.254Z,84.13
2022-09-25T21:33:30.845Z,85.20
2022-09-25T21:35:54.425Z,84.38
2022-09-25T21:38:17.918Z,84.49
2022-09-25T21:40:41.571Z,85.54
2022-09-25T21:43:05.232Z,85.18
2022-09-25T21:45:31.583Z,82.79
2022-09-25T21:47:55.158Z,84.23
2022-09-25T21:50:18.763Z,84.28
2022-09-25T21:52:42.318Z,82.97
2022-09-25T21:55:07.367Z,83.18
2022-09-25T21:57:30.914Z,81.04
2022-09-25T21:59:54.480Z,82.62
2022-09-25T22:02:19.681Z,82.27
2022-09-25T22:04:43.356Z,84.10
2022-09-25T22:07:06.855Z,82.60
2022-09-25T22:09:31.459Z,86.39
2022-09-25T22:11:55.039Z,87.62
2022-09-25T22:14:19.787Z,85.85
2022-09-25T22:16:44.517Z,84.66
2022-09-25T22:19:13.606Z,85.52
2022-09-25T22:21:38.030Z,83.90
2022-09-25T22:24:02.359Z,84.03
2022-09-25T22:26:26.675Z,84.25
2022-09-25T22:28:50.910Z,82.88
2022-09-25T22:31:17.732Z,82.38
2022-09-25T22:33:41.837Z,82.72
2022-09-25T22:36:09.315Z,82.62
2022-09-25T22:38:33.599Z,81.35
2022-09-25T22:40:57.678Z,81.15
2022-09-25T22:43:21.275Z,81.14
2022-09-25T22:45:50.925Z,82.63
2022-09-25T22:48:14.494Z,83.22
2022-09-25T22:50:37.989Z,83.20
2022-09-25T22:53:02.957Z,81.00
2022-09-25T22:55:26.771Z,82.17
2022-09-25T22:57:50.403Z,82.71
2022-09-25T23:00:16.347Z,83.77
2022-09-25T23:02:39.928Z,84.38
2022-09-25T23:05:06.537Z,82.99
2022-09-25T23:07:30.485Z,83.05
2022-09-25T23:09:55.419Z,81.95
2022-09-25T23:12:19.078Z,83.44
2022-09-25T23:14:42.612Z,83.59
2022-09-25T23:17:06.238Z,82.58
2022-09-25T23:19:30.083Z,82.87
2022-09-25T23:21:55.095Z,82.99
2022-09-25T23:24:21.384Z,82.17
2022-09-25T23:26:47.198Z,82.29
2022-09-25T23:29:12.980Z,84.00
2022-09-25T23:31:36.583Z,82.98
2022-09-25T23:34:00.554Z,83.05
2022-09-25T23:36:25.847Z,80.63
2022-09-25T23:38:50.432Z,82.58
2022-09-25T23:41:19.191Z,84.68
2022-09-25T23:43:47.154Z,84.54
2022-09-25T23:46:10.965Z,83.55
2022-09-25T23:48:34.502Z,82.43
2022-09-25T23:50:58.087Z,84.17
2022-09-25T23:53:21.657Z,84.74
2022-09-25T23:55:45.333Z,83.32
2022-09-25T23:58:08.898Z,82.02
